createdAt,value
2018-11-21T00:02:25.881Z,26.03
2018-11-21T00:04:58.269Z,28.27
2018-11-21T00:07:32.165Z,27.10
2018-11-21T00:10:03.345Z,29.07
2018-11-21T00:12:33.695Z,27.70
2018-11-21T00:15:04.289Z,32.20
2018-11-21T00:17:34.686Z,28.57
2018-11-21T00:20:05.851Z,28.30
2018-11-21T00:22:37.874Z,28.10
2018-11-21T00:25:08.277Z,30.07
2018-11-21T00:27:46.813Z,28.63
2018-11-21T00:30:17.432Z,32.60
2018-11-21T00:32:47.713Z,30.70
2018-11-21T00:35:18.125Z,34.10
2018-11-21T00:38:03.578Z,28.73
2018-11-21T00:40:56.270Z,29.53
2018-11-21T00:43:26.990Z,29.57
2018-11-21T00:46:02.809Z,30.80
2018-11-21T00:48:39.596Z,33.80
2018-11-21T00:51:09.321Z,42.67
2018-11-21T00:53:45.609Z,29.17
2018-11-21T00:56:21.489Z,30.13
2018-11-21T00:58:51.737Z,31.57
2018-11-21T01:01:22.799Z,34.40
2018-11-21T01:04:01.877Z,37.00
2018-11-21T01:06:32.368Z,32.90
2018-11-21T01:09:06.637Z,33.80
2018-11-21T01:11:37.384Z,31.43
2018-11-21T01:14:08.361Z,38.03
2018-11-21T01:16:43.249Z,31.50
2018-11-21T01:19:16.482Z,30.37
2018-11-21T01:21:46.796Z,29.30
2018-11-21T01:24:25.758Z,36.33
2018-11-21T01:26:56.060Z,38.10
2018-11-21T01:29:29.560Z,32.97
2018-11-21T01:32:06.967Z,33.40
2018-11-21T01:34:37.696Z,29.90
2018-11-21T01:37:08.637Z,31.43
2018-11-21T01:39:41.659Z,31.80
2018-11-21T01:42:12.804Z,30.40
2018-11-21T01:44:43.146Z,35.00
2018-11-21T01:47:13.675Z,30.63
2018-11-21T01:49:44.335Z,34.50
2018-11-21T01:52:16.597Z,31.70
2018-11-21T01:54:47.016Z,35.40
2018-11-21T01:57:19.724Z,37.07
2018-11-21T01:59:59.795Z,34.93
2018-11-21T02:02:33.827Z,33.70
2018-11-21T02:05:07.580Z,42.90
2018-11-21T02:07:46.896Z,38.50
2018-11-21T02:10:20.967Z,33.70
2018-11-21T02:12:55.243Z,32.37
2018-11-21T02:15:36.193Z,35.37
2018-11-21T02:18:13.157Z,39.10
2018-11-21T02:20:51.086Z,33.33
2018-11-21T02:23:27.854Z,37.80
2018-11-21T02:26:02.492Z,31.67
2018-11-21T02:28:32.868Z,31.23
2018-11-21T02:31:03.474Z,33.10
2018-11-21T02:33:38.751Z,35.43
2018-11-21T02:36:11.891Z,32.50
2018-11-21T02:38:45.755Z,33.17
2018-11-21T02:41:18.032Z,31.90
2018-11-21T02:43:50.984Z,32.87
2018-11-21T02:46:24.646Z,31.30
2018-11-21T02:49:01.324Z,33.30
2018-11-21T02:51:34.681Z,28.50
2018-11-21T02:54:10.021Z,31.30
2018-11-21T02:57:25.870Z,33.37
2018-11-21T02:59:59.920Z,31.03
2018-11-21T03:02:30.580Z,30.53
2018-11-21T03:05:00.998Z,32.73
2018-11-21T03:07:39.728Z,33.30
2018-11-21T03:10:12.902Z,33.47
2018-11-21T03:12:45.961Z,38.37
2018-11-21T03:15:19.840Z,32.60
2018-11-21T03:17:59.541Z,38.77
2018-11-21T03:20:29.624Z,32.80
2018-11-21T03:23:01.405Z,32.97
2018-11-21T03:25:33.572Z,32.37
2018-11-21T03:28:04.056Z,34.10
2018-11-21T03:30:36.399Z,34.70
2018-11-21T03:33:05.232Z,35.97
2018-11-21T03:35:42.425Z,31.90
2018-11-21T03:38:20.690Z,31.07
2018-11-21T03:40:55.447Z,34.00
2018-11-21T03:43:33.388Z,32.83
2018-11-21T03:46:03.901Z,32.83
2018-11-21T03:48:46.865Z,32.13
2018-11-21T03:51:17.266Z,34.70
2018-11-21T03:53:47.782Z,32.77
2018-11-21T03:56:20.742Z,30.57
2018-11-21T03:58:51.161Z,37.80
2018-11-21T04:01:21.702Z,34.47
2018-11-21T04:03:55.114Z,32.80
2018-11-21T04:06:25.403Z,38.17
2018-11-21T04:09:02.851Z,31.53
2018-11-21T04:11:38.806Z,32.70
2018-11-21T04:14:09.546Z,31.37
2018-11-21T04:16:42.998Z,31.40
2018-11-21T04:19:18.150Z,30.53
2018-11-21T04:21:48.777Z,28.97
2018-11-21T04:24:39.238Z,35.40
2018-11-21T04:27:09.581Z,30.40
2018-11-21T04:29:42.888Z,31.20
2018-11-21T04:32:15.183Z,35.40
2018-11-21T04:34:45.575Z,31.10
2018-11-21T04:37:23.722Z,30.83
2018-11-21T04:39:54.633Z,31.60
2018-11-21T04:42:29.672Z,32.60
2018-11-21T04:45:01.017Z,28.83
2018-11-21T04:47:33.498Z,30.47
2018-11-21T04:50:03.931Z,31.27
2018-11-21T04:52:34.639Z,29.00
2018-11-21T04:55:10.993Z,29.83
2018-11-21T04:57:48.638Z,35.13
2018-11-21T05:00:32.235Z,33.20
2018-11-21T05:03:02.611Z,35.23
2018-11-21T05:05:37.456Z,29.63
2018-11-21T05:08:08.812Z,29.47
2018-11-21T05:10:37.741Z,29.80
2018-11-21T05:13:08.675Z,30.47
2018-11-21T05:15:47.155Z,34.47
2018-11-21T05:18:20.783Z,30.47
2018-11-21T05:20:52.217Z,26.57
2018-11-21T05:23:23.269Z,27.47
2018-11-21T05:25:56.870Z,29.67
2018-11-21T05:31:02.066Z,29.20
2018-11-21T05:33:38.682Z,27.87
2018-11-21T05:36:20.726Z,27.53
2018-11-21T05:38:52.976Z,27.83
2018-11-21T05:41:29.260Z,27.00
2018-11-21T05:44:05.113Z,27.87
2018-11-21T05:46:39.867Z,27.33
2018-11-21T05:49:12.335Z,27.23
2018-11-21T05:51:45.405Z,30.67
2018-11-21T05:54:18.948Z,25.07
2018-11-21T05:57:03.172Z,29.03
2018-11-21T05:59:44.887Z,30.00
2018-11-21T06:02:24.239Z,28.20
2018-11-21T06:04:56.588Z,26.73
2018-11-21T06:07:30.920Z,27.90
2018-11-21T06:10:06.095Z,27.90
2018-11-21T06:12:44.175Z,27.07
2018-11-21T06:15:16.392Z,26.50
2018-11-21T06:17:57.416Z,32.63
2018-11-21T06:20:34.661Z,28.63
2018-11-21T06:23:09.836Z,29.10
2018-11-21T06:25:50.092Z,28.63
2018-11-21T06:28:20.948Z,28.97
2018-11-21T06:30:53.572Z,27.47
2018-11-21T06:33:28.706Z,31.40
2018-11-21T06:36:08.456Z,29.97
2018-11-21T06:38:44.555Z,30.17
2018-11-21T06:41:21.651Z,28.30
2018-11-21T06:43:54.789Z,30.27
2018-11-21T06:46:27.356Z,28.77
2018-11-21T06:49:02.555Z,31.10
2018-11-21T06:51:41.957Z,31.60
2018-11-21T06:54:15.162Z,29.63
2018-11-21T06:56:47.525Z,30.23
2018-11-21T06:59:19.961Z,26.90
2018-11-21T07:01:53.275Z,29.10
2018-11-21T07:04:31.235Z,31.37
2018-11-21T07:07:09.324Z,30.97
2018-11-21T07:09:43.622Z,28.73
2018-11-21T07:12:18.060Z,29.63
2018-11-21T07:14:50.292Z,28.70
2018-11-21T07:17:23.344Z,34.10
2018-11-21T07:20:00.375Z,28.90
2018-11-21T07:22:37.197Z,29.03
2018-11-21T07:25:19.697Z,31.07
2018-11-21T07:27:52.946Z,29.30
2018-11-21T07:30:26.130Z,26.53
2018-11-21T07:33:04.740Z,29.60
2018-11-21T07:35:41.063Z,28.40
2018-11-21T07:38:26.167Z,26.43
2018-11-21T07:40:59.839Z,28.93
2018-11-21T07:43:32.104Z,26.30
2018-11-21T07:46:04.722Z,28.63
2018-11-21T07:48:40.167Z,33.87
2018-11-21T07:51:16.338Z,27.77
2018-11-21T07:53:50.773Z,31.53
2018-11-21T07:57:32.302Z,28.23
2018-11-21T08:00:56.444Z,26.17
2018-11-21T08:03:28.578Z,25.70
2018-11-21T08:06:19.307Z,24.87
2018-11-21T08:09:28.161Z,25.43
2018-11-21T08:12:25.997Z,25.80
2018-11-21T08:15:22.982Z,28.57
2018-11-21T08:18:05.956Z,26.57
2018-11-21T08:20:57.375Z,26.20
2018-11-21T08:23:47.991Z,25.70
2018-11-21T08:26:38.896Z,24.53
2018-11-21T08:29:12.098Z,25.47
2018-11-21T08:31:44.517Z,27.53
2018-11-21T08:34:19.204Z,26.70
2018-11-21T08:36:51.469Z,26.80
2018-11-21T08:39:27.390Z,27.70
2018-11-21T08:42:02.400Z,27.23
2018-11-21T08:44:34.984Z,26.83
2018-11-21T08:47:12.998Z,26.87
2018-11-21T08:49:49.988Z,28.20
2018-11-21T08:52:36.834Z,30.03
2018-11-21T08:55:13.264Z,28.17
2018-11-21T08:57:49.388Z,28.37
2018-11-21T09:00:20.582Z,25.40
2018-11-21T09:02:57.069Z,29.93
2018-11-21T09:05:43.092Z,25.10
2018-11-21T09:08:19.664Z,25.30
2018-11-21T09:10:51.475Z,33.27
2018-11-21T09:13:29.996Z,48.83
2018-11-21T09:16:05.636Z,30.27
2018-11-21T09:18:40.066Z,26.70
2018-11-21T09:21:15.883Z,25.53
2018-11-21T09:23:50.213Z,22.33
2018-11-21T09:26:23.227Z,29.33
2018-11-21T09:28:55.544Z,27.30
2018-11-21T09:31:27.894Z,25.10
2018-11-21T09:34:00.750Z,25.27
2018-11-21T09:36:33.379Z,28.97
2018-11-21T09:39:08.890Z,26.70
2018-11-21T09:41:47.234Z,28.07
2018-11-21T09:44:33.644Z,25.97
2018-11-21T09:47:06.698Z,27.47
2018-11-21T09:49:51.577Z,28.00
2018-11-21T09:52:23.932Z,26.40
2018-11-21T09:54:56.577Z,26.70
2018-11-21T09:57:30.481Z,25.40
2018-11-21T10:00:05.464Z,24.33
2018-11-21T10:03:16.896Z,28.17
2018-11-21T10:06:00.115Z,26.17
2018-11-21T10:08:49.523Z,24.53
2018-11-21T10:11:24.721Z,24.87
2018-11-21T10:13:57.191Z,24.57
2018-11-21T10:16:35.489Z,24.90
2018-11-21T10:19:08.554Z,28.23
2018-11-21T10:21:47.531Z,25.60
2018-11-21T10:24:31.215Z,23.90
2018-11-21T10:27:05.297Z,24.70
2018-11-21T10:29:39.679Z,25.60
2018-11-21T10:32:14.691Z,28.50
2018-11-21T10:34:47.961Z,25.30
2018-11-21T10:37:24.387Z,24.37
2018-11-21T10:39:57.503Z,25.60
2018-11-21T10:42:32.896Z,25.80
2018-11-21T10:45:19.655Z,26.53
2018-11-21T10:47:52.251Z,29.93
2018-11-21T10:50:28.666Z,28.63
2018-11-21T10:53:05.200Z,27.60
2018-11-21T10:55:40.664Z,31.20
2018-11-21T10:58:13.154Z,28.97
2018-11-21T11:01:09.170Z,27.57
2018-11-21T11:03:52.756Z,25.30
2018-11-21T11:06:52.102Z,28.83
2018-11-21T11:09:43.986Z,28.73
2018-11-21T11:12:57.765Z,26.13
2018-11-21T11:16:00.858Z,26.13
2018-11-21T11:18:53.909Z,25.27
2018-11-21T11:22:01.885Z,27.90
2018-11-21T11:24:49.576Z,28.97
2018-11-21T11:27:41.096Z,27.30
2018-11-21T11:30:50.113Z,27.23
2018-11-21T11:33:50.713Z,32.07
2018-11-21T11:36:56.713Z,27.77
2018-11-21T11:39:50.853Z,30.63
2018-11-21T11:42:51.881Z,28.50
2018-11-21T11:45:43.550Z,28.70
2018-11-21T11:48:42.597Z,28.60
2018-11-21T11:51:30.693Z,30.27
2018-11-21T11:54:22.127Z,29.77
2018-11-21T11:57:06.802Z,30.10
2018-11-21T12:00:04.371Z,28.10
2018-11-21T12:03:18.167Z,28.03
2018-11-21T12:06:10.734Z,28.87
2018-11-21T12:09:04.414Z,31.97
2018-11-21T12:12:04.749Z,31.10
2018-11-21T12:15:07.858Z,28.57
2018-11-21T12:17:55.784Z,30.30
2018-11-21T12:21:04.966Z,31.97
2018-11-21T12:23:57.729Z,30.00
2018-11-21T12:26:49.780Z,35.27
2018-11-21T12:30:04.090Z,29.47
2018-11-21T12:33:11.089Z,31.37
2018-11-21T12:36:25.666Z,28.27
2018-11-21T12:39:17.449Z,31.43
2018-11-21T12:42:13.590Z,31.27
2018-11-21T12:45:27.987Z,31.87
2018-11-21T12:48:26.045Z,34.10
2018-11-21T12:51:33.189Z,31.33
2018-11-21T12:54:45.560Z,33.10
2018-11-21T12:57:48.420Z,30.43
2018-11-21T13:00:51.588Z,31.70
2018-11-21T13:03:52.963Z,30.67
2018-11-21T13:07:02.703Z,30.57
2018-11-21T13:09:46.511Z,30.97
2018-11-21T13:12:49.535Z,29.60
2018-11-21T13:15:43.508Z,30.87
2018-11-21T13:18:44.467Z,29.90
2018-11-21T13:21:40.400Z,28.77
2018-11-21T13:24:32.910Z,28.73
2018-11-21T13:27:27.341Z,29.10
2018-11-21T13:30:33.943Z,28.70
2018-11-21T13:33:24.806Z,30.03
2018-11-21T13:36:35.160Z,31.23
2018-11-21T13:39:46.604Z,29.70
2018-11-21T13:42:39.415Z,32.20
2018-11-21T13:45:36.112Z,30.40
2018-11-21T13:48:36.828Z,31.43
2018-11-21T13:51:31.630Z,33.70
2018-11-21T13:54:25.205Z,31.57
2018-11-21T13:56:59.901Z,32.37
2018-11-21T13:59:37.446Z,31.97
2018-11-21T14:02:09.937Z,33.90
2018-11-21T14:04:43.544Z,30.83
2018-11-21T14:07:19.461Z,31.37
2018-11-21T14:10:06.022Z,30.87
2018-11-21T14:12:38.455Z,28.70
2018-11-21T14:15:13.269Z,30.43
2018-11-21T14:17:50.592Z,28.20
2018-11-21T14:20:23.143Z,30.90
2018-11-21T14:22:55.519Z,28.50
2018-11-21T14:25:34.039Z,27.97
2018-11-21T14:28:06.637Z,31.87
2018-11-21T14:30:43.031Z,30.33
2018-11-21T14:33:16.779Z,34.00
2018-11-21T14:35:52.279Z,30.87
2018-11-21T14:38:25.153Z,29.20
2018-11-21T14:41:04.947Z,28.97
2018-11-21T14:43:52.559Z,29.80
2018-11-21T14:46:34.773Z,31.83
2018-11-21T14:49:08.043Z,31.97
2018-11-21T14:51:40.627Z,29.60
2018-11-21T14:54:16.746Z,31.60
2018-11-21T14:56:59.368Z,31.60
2018-11-21T14:59:33.028Z,29.10
2018-11-21T15:02:08.139Z,25.70
2018-11-21T15:04:40.711Z,28.43
2018-11-21T15:07:13.777Z,31.77
2018-11-21T15:09:58.626Z,29.33
2018-11-21T15:12:29.535Z,28.70
2018-11-21T15:15:04.428Z,29.30
2018-11-21T15:17:37.086Z,29.63
2018-11-21T15:20:19.842Z,27.73
2018-11-21T15:22:55.341Z,30.80
2018-11-21T15:25:28.490Z,29.43
2018-11-21T15:28:01.894Z,29.67
2018-11-21T15:30:34.498Z,27.90
2018-11-21T15:33:07.930Z,31.40
2018-11-21T15:35:43.175Z,30.73
2018-11-21T15:38:19.332Z,29.00
2018-11-21T15:40:54.048Z,30.40
2018-11-21T15:43:27.373Z,29.37
2018-11-21T15:46:04.062Z,30.37
2018-11-21T15:48:36.415Z,31.67
2018-11-21T15:51:09.242Z,30.93
2018-11-21T15:53:45.403Z,29.87
2018-11-21T15:56:26.424Z,30.70
2018-11-21T15:59:01.303Z,29.40
2018-11-21T16:01:38.622Z,29.80
2018-11-21T16:04:14.148Z,29.60
2018-11-21T16:06:58.034Z,28.77
2018-11-21T16:09:46.088Z,31.20
2018-11-21T16:12:18.516Z,28.97
2018-11-21T16:14:53.118Z,27.17
2018-11-21T16:17:26.073Z,28.80
2018-11-21T16:20:03.789Z,29.27
2018-11-21T16:22:46.043Z,29.73
2018-11-21T16:25:26.966Z,25.63
2018-11-21T16:28:01.767Z,28.37
2018-11-21T16:30:37.777Z,37.97
2018-11-21T16:33:14.066Z,28.00
2018-11-21T16:35:56.516Z,25.27
2018-11-21T16:38:32.124Z,26.80
2018-11-21T16:41:05.897Z,26.60
2018-11-21T16:43:38.625Z,27.30
2018-11-21T16:46:11.477Z,29.00
2018-11-21T16:48:52.540Z,27.10
2018-11-21T16:51:25.975Z,27.43
2018-11-21T16:53:59.879Z,25.40
2018-11-21T16:56:33.127Z,26.07
2018-11-21T16:59:06.335Z,25.83
2018-11-21T17:01:42.239Z,25.30
2018-11-21T17:04:15.254Z,23.27
2018-11-21T17:06:50.734Z,25.70
2018-11-21T17:09:25.498Z,26.70
2018-11-21T17:11:59.726Z,26.70
2018-11-21T17:14:32.867Z,27.57
2018-11-21T17:17:06.243Z,25.10
2018-11-21T17:19:40.071Z,26.67
2018-11-21T17:22:23.735Z,29.00
2018-11-21T17:24:57.292Z,25.63
2018-11-21T17:27:30.805Z,26.60
2018-11-21T17:30:05.033Z,22.97
2018-11-21T17:32:41.193Z,24.20
2018-11-21T17:35:21.426Z,24.73
2018-11-21T17:37:56.172Z,25.57
2018-11-21T17:40:36.860Z,23.60
2018-11-21T17:43:18.936Z,25.93
2018-11-21T17:46:04.136Z,26.40
2018-11-21T17:48:37.297Z,22.23
2018-11-21T17:51:12.420Z,26.23
2018-11-21T17:54:45.064Z,27.13
2018-11-21T17:56:44.436Z,27.93
2018-11-21T17:59:19.847Z,24.90
2018-11-21T18:01:54.159Z,25.40
2018-11-21T18:04:35.284Z,25.23
2018-11-21T18:07:08.633Z,26.87
2018-11-21T18:09:55.129Z,25.00
2018-11-21T18:12:32.146Z,24.47
2018-11-21T18:15:06.293Z,24.70
2018-11-21T18:17:42.017Z,25.67
2018-11-21T18:20:19.078Z,25.80
2018-11-21T18:22:58.405Z,24.97
2018-11-21T18:25:41.682Z,25.40
2018-11-21T18:28:35.908Z,25.80
2018-11-21T18:31:24.587Z,25.07
2018-11-21T18:34:07.173Z,25.47
2018-11-21T18:36:41.362Z,23.50
2018-11-21T18:39:19.998Z,25.23
2018-11-21T18:41:58.112Z,24.53
2018-11-21T18:44:29.476Z,24.73
2018-11-21T18:47:08.405Z,24.47
2018-11-21T18:49:48.821Z,22.30
2018-11-21T18:52:21.669Z,24.33
2018-11-21T18:55:00.113Z,21.57
2018-11-21T18:58:28.563Z,23.10
2018-11-21T19:01:03.098Z,20.43
2018-11-21T19:03:42.266Z,21.80
2018-11-21T19:06:17.729Z,20.37
2018-11-21T19:08:53.681Z,21.47
2018-11-21T19:11:26.510Z,20.47
2018-11-21T19:14:03.529Z,19.57
2018-11-21T19:16:38.105Z,20.67
2018-11-21T19:19:11.001Z,19.93
2018-11-21T19:21:50.261Z,18.43
2018-11-21T19:24:27.880Z,19.13
2018-11-21T19:27:00.937Z,17.50
2018-11-21T19:29:34.841Z,16.77
2018-11-21T19:32:08.603Z,16.33
2018-11-21T19:34:49.187Z,16.40
2018-11-21T19:37:30.010Z,17.73
2018-11-21T19:40:05.875Z,16.73
2018-11-21T19:42:42.674Z,16.70
2018-11-21T19:45:29.847Z,17.57
2018-11-21T19:48:04.739Z,16.00
2018-11-21T19:50:40.161Z,16.80
2018-11-21T19:53:14.100Z,15.23
2018-11-21T19:55:55.968Z,16.30
2018-11-21T19:58:30.492Z,15.97
2018-11-21T20:01:03.441Z,18.93
2018-11-21T20:03:36.801Z,17.10
2018-11-21T20:06:11.817Z,15.60
2018-11-21T20:08:44.951Z,17.50
2018-11-21T20:11:18.772Z,17.37
2018-11-21T20:13:57.692Z,18.37
2018-11-21T20:16:35.138Z,19.10
2018-11-21T20:19:13.182Z,18.90
2018-11-21T20:21:48.548Z,16.77
2018-11-21T20:24:23.065Z,17.10
2018-11-21T20:26:56.604Z,15.87
2018-11-21T20:29:32.331Z,15.10
2018-11-21T20:32:05.304Z,16.53
2018-11-21T20:34:46.570Z,16.87
2018-11-21T20:37:21.032Z,14.80
2018-11-21T20:39:54.315Z,17.03
2018-11-21T20:42:27.770Z,16.67
2018-11-21T20:45:02.065Z,16.77
2018-11-21T20:47:37.723Z,16.37
2018-11-21T20:50:12.353Z,16.23
2018-11-21T20:52:46.766Z,17.00
2018-11-21T20:55:24.178Z,17.13
2018-11-21T20:57:58.144Z,16.57
2018-11-21T21:00:33.576Z,17.17
2018-11-21T21:05:41.374Z,16.17
2018-11-21T21:08:20.653Z,17.27
2018-11-21T21:10:54.387Z,16.63
2018-11-21T21:13:29.131Z,17.13
2018-11-21T21:16:06.006Z,16.90
2018-11-21T21:18:42.723Z,16.93
2018-11-21T21:21:16.318Z,16.23
2018-11-21T21:23:51.740Z,16.27
2018-11-21T21:26:25.867Z,18.63
2018-11-21T21:29:09.411Z,18.67
2018-11-21T21:31:42.896Z,17.37
2018-11-21T21:34:18.787Z,16.87
2018-11-21T21:36:55.648Z,18.57
2018-11-21T21:39:37.818Z,17.77
2018-11-21T21:42:16.250Z,19.67
2018-11-21T21:44:52.762Z,17.30
2018-11-21T21:47:28.365Z,16.00
2018-11-21T21:50:06.187Z,17.23
2018-11-21T21:52:40.328Z,16.67
2018-11-21T21:55:22.678Z,18.80
2018-11-21T21:57:57.284Z,20.17
2018-11-21T22:00:34.039Z,19.50
2018-11-21T22:03:16.238Z,20.20
2018-11-21T22:05:57.880Z,18.40
2018-11-21T22:08:30.863Z,18.67
2018-11-21T22:11:06.704Z,19.43
2018-11-21T22:13:38.400Z,19.53
2018-11-21T22:16:18.400Z,19.23
2018-11-21T22:18:57.047Z,19.10
2018-11-21T22:21:36.726Z,18.13
2018-11-21T22:24:12.698Z,17.70
2018-11-21T22:26:46.005Z,17.90
2018-11-21T22:29:19.866Z,19.07
2018-11-21T22:31:55.179Z,16.73
2018-11-21T22:34:30.526Z,18.43
2018-11-21T22:37:10.826Z,19.63
2018-11-21T22:39:46.792Z,18.07
2018-11-21T22:42:19.774Z,17.53
2018-11-21T22:44:54.276Z,19.10
2018-11-21T22:47:27.380Z,18.60
2018-11-21T22:50:01.102Z,18.67
2018-11-21T22:52:34.343Z,17.73
2018-11-21T22:55:07.689Z,20.50
2018-11-21T22:57:43.832Z,16.63
2018-11-21T23:00:40.022Z,19.60
2018-11-21T23:03:19.311Z,19.20
2018-11-21T23:05:53.796Z,18.80
2018-11-21T23:08:25.531Z,19.37
2018-11-21T23:10:58.628Z,18.57
2018-11-21T23:13:32.105Z,19.37
2018-11-21T23:16:04.970Z,18.33
2018-11-21T23:18:41.209Z,23.70
2018-11-21T23:21:19.589Z,18.43
2018-11-21T23:23:52.556Z,18.00
2018-11-21T23:26:26.027Z,18.40
2018-11-21T23:28:58.670Z,18.93
2018-11-21T23:31:38.782Z,20.77
2018-11-21T23:34:12.776Z,19.80
2018-11-21T23:36:49.543Z,19.57
2018-11-21T23:39:22.041Z,19.23
2018-11-21T23:41:54.514Z,21.73
2018-11-21T23:44:27.293Z,18.53
2018-11-21T23:47:09.280Z,21.57
2018-11-21T23:49:47.400Z,20.90
2018-11-21T23:52:22.178Z,21.83
2018-11-21T23:54:59.519Z,21.10
2018-11-21T23:57:35.254Z,21.00
